createdAt,value
2023-10-09T00:01:34.265Z,45.56
2023-10-09T00:04:05.483Z,45.91
2023-10-09T00:06:46.280Z,45.57
2023-10-09T00:09:21.976Z,45.68
2023-10-09T00:11:51.726Z,45.64
2023-10-09T00:14:21.560Z,45.65
2023-10-09T00:16:51.881Z,45.88
2023-10-09T00:19:32.929Z,45.66
2023-10-09T00:22:22.758Z,45.71
2023-10-09T00:24:54.717Z,45.76
2023-10-09T00:27:26.634Z,45.52
2023-10-09T00:29:59.651Z,45.54
2023-10-09T00:32:29.482Z,45.46
2023-10-09T00:35:01.924Z,45.48
2023-10-09T00:37:36.704Z,45.44
2023-10-09T00:40:15.364Z,45.79
2023-10-09T00:42:44.988Z,45.38
2023-10-09T00:45:19.119Z,45.41
2023-10-09T00:47:50.354Z,45.54
2023-10-09T00:50:20.021Z,45.82
2023-10-09T00:52:54.748Z,46.15
2023-10-09T00:55:38.822Z,46.65
2023-10-09T00:58:15.667Z,46.34
2023-10-09T01:00:48.141Z,46.47
2023-10-09T01:03:19.574Z,46.57
2023-10-09T01:06:03.427Z,46.20
2023-10-09T01:08:33.118Z,46.06
2023-10-09T01:11:12.283Z,45.74
2023-10-09T01:13:58.793Z,44.86
2023-10-09T01:16:28.629Z,44.54
2023-10-09T01:19:02.842Z,44.29
2023-10-09T01:21:34.342Z,44.00
2023-10-09T01:24:09.576Z,43.90
2023-10-09T01:26:47.132Z,44.09
2023-10-09T01:29:30.126Z,43.88
2023-10-09T01:32:09.352Z,44.21
2023-10-09T01:34:39.156Z,44.38
2023-10-09T01:37:14.405Z,44.56
2023-10-09T01:39:45.010Z,44.56
2023-10-09T01:42:26.127Z,44.57
2023-10-09T01:44:55.935Z,45.04
2023-10-09T01:47:25.688Z,45.17
2023-10-09T01:50:00.631Z,45.27
2023-10-09T01:52:30.782Z,45.57
2023-10-09T01:55:12.132Z,45.49
2023-10-09T01:57:42.219Z,45.44
2023-10-09T02:00:12.662Z,45.58
2023-10-09T02:02:47.842Z,45.96
2023-10-09T02:05:17.588Z,45.87
2023-10-09T02:07:47.291Z,45.95
2023-10-09T02:10:32.860Z,45.91
2023-10-09T02:13:09.048Z,46.70
2023-10-09T02:15:54.181Z,46.22
2023-10-09T02:18:24.811Z,46.23
2023-10-09T02:21:03.600Z,46.87
2023-10-09T02:23:51.952Z,46.79
2023-10-09T02:26:27.911Z,46.35
2023-10-09T02:29:07.229Z,46.51
2023-10-09T02:31:43.013Z,46.58
2023-10-09T02:34:18.446Z,46.79
2023-10-09T02:37:07.605Z,47.55
2023-10-09T02:39:46.256Z,47.06
2023-10-09T02:42:15.938Z,46.86
2023-10-09T02:44:57.103Z,46.60
2023-10-09T02:47:34.282Z,46.63
2023-10-09T02:50:09.144Z,46.68
2023-10-09T02:52:43.272Z,46.68
2023-10-09T02:55:30.848Z,46.51
2023-10-09T02:58:10.610Z,46.66
2023-10-09T03:00:40.923Z,46.79
2023-10-09T03:03:10.762Z,46.84
2023-10-09T03:05:45.154Z,47.02
2023-10-09T03:08:19.397Z,46.77
2023-10-09T03:10:50.627Z,46.90
2023-10-09T03:13:21.997Z,47.17
2023-10-09T03:15:54.510Z,47.13
2023-10-09T03:18:24.249Z,46.89
2023-10-09T03:20:53.907Z,47.06
2023-10-09T03:23:23.598Z,47.21
2023-10-09T03:25:59.154Z,47.06
2023-10-09T03:28:33.914Z,47.04
2023-10-09T03:31:05.485Z,47.07
2023-10-09T03:33:35.665Z,47.18
2023-10-09T03:36:09.897Z,47.18
2023-10-09T03:38:42.366Z,47.45
2023-10-09T03:41:17.321Z,47.18
2023-10-09T03:43:48.913Z,47.12
2023-10-09T03:46:29.064Z,47.34
2023-10-09T03:48:59.484Z,47.21
2023-10-09T03:51:30.356Z,47.50
2023-10-09T03:54:00.303Z,47.32
2023-10-09T03:56:30.076Z,47.30
2023-10-09T03:59:00.767Z,47.48
2023-10-09T04:01:31.252Z,47.49
2023-10-09T04:04:05.819Z,47.18
2023-10-09T04:06:36.010Z,47.61
2023-10-09T04:09:22.390Z,47.50
2023-10-09T04:12:13.947Z,47.61
2023-10-09T04:14:52.719Z,47.84
2023-10-09T04:17:38.095Z,47.43
2023-10-09T04:20:23.130Z,47.62
2023-10-09T04:23:08.442Z,47.64
2023-10-09T04:25:48.240Z,47.73
2023-10-09T04:28:17.917Z,48.03
2023-10-09T04:30:49.472Z,47.53
2023-10-09T04:33:37.529Z,47.76
2023-10-09T04:36:24.039Z,48.10
2023-10-09T04:39:19.171Z,48.13
2023-10-09T04:41:48.829Z,47.84
2023-10-09T04:44:38.783Z,48.09
2023-10-09T04:47:17.267Z,47.93
2023-10-09T04:49:52.747Z,47.99
2023-10-09T04:52:42.499Z,47.88
2023-10-09T04:55:12.298Z,48.24
2023-10-09T04:57:45.755Z,48.38
2023-10-09T05:00:26.216Z,48.34
2023-10-09T05:03:07.969Z,47.95
2023-10-09T05:05:44.203Z,48.06
2023-10-09T05:08:25.073Z,48.24
2023-10-09T05:10:59.020Z,48.14
2023-10-09T05:13:42.100Z,48.59
2023-10-09T05:16:31.776Z,48.70
2023-10-09T05:19:24.193Z,48.43
2023-10-09T05:21:55.333Z,48.33
2023-10-09T05:24:26.339Z,48.06
2023-10-09T05:26:56.136Z,48.28
2023-10-09T05:29:36.350Z,48.25
2023-10-09T05:32:16.540Z,48.09
2023-10-09T05:35:02.758Z,48.27
2023-10-09T05:37:36.583Z,48.34
2023-10-09T05:40:13.105Z,48.17
2023-10-09T05:42:46.307Z,48.55
2023-10-09T05:45:20.604Z,48.35
2023-10-09T05:48:00.599Z,48.57
2023-10-09T05:50:30.960Z,48.36
2023-10-09T05:53:09.448Z,48.21
2023-10-09T05:56:11.036Z,48.61
2023-10-09T05:58:58.625Z,48.58
2023-10-09T06:01:46.306Z,48.75
2023-10-09T06:04:20.568Z,48.90
2023-10-09T06:06:59.672Z,48.88
2023-10-09T06:09:52.453Z,48.77
2023-10-09T06:12:35.539Z,48.79
2023-10-09T06:15:23.744Z,48.76
2023-10-09T06:17:53.435Z,48.58
2023-10-09T06:20:41.286Z,48.80
2023-10-09T06:23:38.327Z,48.94
2023-10-09T06:26:26.351Z,49.00
2023-10-09T06:29:14.126Z,48.99
2023-10-09T06:32:09.857Z,49.19
2023-10-09T06:34:47.330Z,49.08
2023-10-09T06:37:22.000Z,49.18
2023-10-09T06:40:00.553Z,49.27
2023-10-09T06:42:33.493Z,49.02
2023-10-09T06:45:12.379Z,49.18
2023-10-09T06:47:44.918Z,49.44
2023-10-09T06:50:23.569Z,49.30
2023-10-09T06:53:11.539Z,49.55
2023-10-09T06:56:16.971Z,49.31
2023-10-09T06:58:50.502Z,49.16
2023-10-09T07:01:27.951Z,49.12
2023-10-09T07:04:13.530Z,49.32
2023-10-09T07:06:42.777Z,50.21
2023-10-09T07:09:12.559Z,49.48
2023-10-09T07:11:43.794Z,49.04
2023-10-09T07:14:35.470Z,49.72
2023-10-09T07:17:20.774Z,49.44
2023-10-09T07:19:53.378Z,49.53
2023-10-09T07:22:23.157Z,49.46
2023-10-09T07:24:59.545Z,49.92
2023-10-09T07:28:08.386Z,49.54
2023-10-09T07:30:38.066Z,49.46
2023-10-09T07:33:09.068Z,49.75
2023-10-09T07:35:45.661Z,49.71
2023-10-09T07:38:22.467Z,50.11
2023-10-09T07:41:22.507Z,49.96
2023-10-09T07:43:53.451Z,49.73
2023-10-09T07:46:36.276Z,50.23
2023-10-09T07:49:14.852Z,50.23
2023-10-09T07:51:49.540Z,50.09
2023-10-09T07:54:34.599Z,50.40
2023-10-09T07:57:18.667Z,50.36
2023-10-09T08:00:26.652Z,50.42
2023-10-09T08:03:02.928Z,50.38
2023-10-09T08:05:47.112Z,50.42
2023-10-09T08:08:39.004Z,50.60
2023-10-09T08:11:30.314Z,50.47
2023-10-09T08:14:03.234Z,50.41
2023-10-09T08:16:41.912Z,50.60
2023-10-09T08:19:46.893Z,50.41
2023-10-09T08:22:25.358Z,50.41
2023-10-09T08:25:01.890Z,50.50
2023-10-09T08:27:35.299Z,50.77
2023-10-09T08:30:22.242Z,50.36
2023-10-09T08:36:10.431Z,50.46
2023-10-09T08:38:43.345Z,50.78
2023-10-09T08:41:25.720Z,50.60
2023-10-09T08:43:56.325Z,50.82
2023-10-09T08:46:32.097Z,51.11
2023-10-09T08:49:02.326Z,50.88
2023-10-09T08:51:32.296Z,50.98
2023-10-09T08:54:02.013Z,50.75
2023-10-09T08:56:31.708Z,50.83
2023-10-09T08:59:05.103Z,50.86
2023-10-09T09:01:34.992Z,50.77
2023-10-09T09:04:24.468Z,50.91
2023-10-09T09:06:54.189Z,50.64
2023-10-09T09:09:26.924Z,51.00
2023-10-09T09:11:57.976Z,50.80
2023-10-09T09:14:42.212Z,51.12
2023-10-09T09:17:15.474Z,50.90
2023-10-09T09:19:45.290Z,50.92
2023-10-09T09:22:15.533Z,50.42
2023-10-09T09:24:50.791Z,50.84
2023-10-09T09:27:23.753Z,50.78
2023-10-09T09:29:56.838Z,50.49
2023-10-09T09:32:38.267Z,50.62
2023-10-09T09:35:08.757Z,50.39
2023-10-09T09:37:47.427Z,50.63
2023-10-09T09:40:35.167Z,50.40
2023-10-09T09:43:08.909Z,50.55
2023-10-09T09:45:39.124Z,50.20
2023-10-09T09:48:09.387Z,50.23
2023-10-09T09:50:47.190Z,50.24
2023-10-09T09:53:19.938Z,50.24
2023-10-09T09:56:02.665Z,50.32
2023-10-09T09:58:47.514Z,50.32
2023-10-09T10:01:27.531Z,50.30
2023-10-09T10:04:03.141Z,50.15
2023-10-09T10:06:35.034Z,50.24
2023-10-09T10:09:05.670Z,49.88
2023-10-09T10:11:56.273Z,50.20
2023-10-09T10:14:34.924Z,49.83
2023-10-09T10:17:34.785Z,49.59
2023-10-09T10:20:27.929Z,50.17
2023-10-09T10:23:20.989Z,49.89
2023-10-09T10:25:53.951Z,49.92
2023-10-09T10:28:43.195Z,50.02
2023-10-09T10:31:13.912Z,50.02
2023-10-09T10:34:10.126Z,49.86
2023-10-09T10:36:39.363Z,50.53
2023-10-09T10:39:33.291Z,50.04
2023-10-09T10:42:03.748Z,49.86
2023-10-09T10:44:39.265Z,49.80
2023-10-09T10:47:29.928Z,49.82
2023-10-09T10:50:14.145Z,49.95
2023-10-09T10:52:47.577Z,49.73
2023-10-09T10:55:21.608Z,49.71
2023-10-09T10:58:03.632Z,49.53
2023-10-09T11:00:52.011Z,49.91
2023-10-09T11:03:54.466Z,49.96
2023-10-09T11:06:40.414Z,49.76
2023-10-09T11:09:23.619Z,50.01
2023-10-09T11:11:57.835Z,49.72
2023-10-09T11:14:27.591Z,49.70
2023-10-09T11:17:00.466Z,49.58
2023-10-09T11:19:30.492Z,49.26
2023-10-09T11:22:09.170Z,49.30
2023-10-09T11:24:38.961Z,49.40
2023-10-09T11:27:09.378Z,49.52
2023-10-09T11:29:45.987Z,49.59
2023-10-09T11:32:20.847Z,49.02
2023-10-09T11:34:57.781Z,49.30
2023-10-09T11:37:33.394Z,49.47
2023-10-09T11:40:03.559Z,49.22
2023-10-09T11:42:40.938Z,49.38
2023-10-09T11:45:22.711Z,49.26
2023-10-09T11:48:02.784Z,49.31
2023-10-09T11:50:54.105Z,49.13
2023-10-09T11:53:26.676Z,49.10
2023-10-09T11:55:56.676Z,49.05
2023-10-09T11:58:26.743Z,49.23
2023-10-09T12:01:01.730Z,49.07
2023-10-09T12:03:32.361Z,49.18
2023-10-09T12:06:14.822Z,49.25
2023-10-09T12:08:44.510Z,49.23
2023-10-09T12:11:15.421Z,49.04
2023-10-09T12:13:48.538Z,49.21
2023-10-09T12:16:18.320Z,48.96
2023-10-09T12:18:55.635Z,49.36
2023-10-09T12:21:26.106Z,49.00
2023-10-09T12:24:02.297Z,49.19
2023-10-09T12:26:37.553Z,49.19
2023-10-09T12:29:13.527Z,49.13
2023-10-09T12:31:47.967Z,49.14
2023-10-09T12:34:19.150Z,48.90
2023-10-09T12:36:49.262Z,48.87
2023-10-09T12:39:21.956Z,48.75
2023-10-09T12:41:57.770Z,48.75
2023-10-09T12:44:29.767Z,49.08
2023-10-09T12:47:01.601Z,48.88
2023-10-09T12:49:31.461Z,48.65
2023-10-09T12:52:01.405Z,48.70
2023-10-09T12:54:31.741Z,48.88
2023-10-09T12:57:01.891Z,48.66
2023-10-09T12:59:31.677Z,48.72
2023-10-09T13:02:01.410Z,48.83
2023-10-09T13:04:34.375Z,48.82
2023-10-09T13:07:08.785Z,48.68
2023-10-09T13:10:01.409Z,48.49
2023-10-09T13:12:31.197Z,48.62
2023-10-09T13:15:00.933Z,48.41
2023-10-09T13:17:31.988Z,48.65
2023-10-09T13:20:03.017Z,48.25
2023-10-09T13:22:33.162Z,48.00
2023-10-09T13:25:07.149Z,48.23
2023-10-09T13:27:36.967Z,48.08
2023-10-09T13:30:12.114Z,48.18
2023-10-09T13:32:41.908Z,48.00
2023-10-09T13:35:12.216Z,48.06
2023-10-09T13:37:42.145Z,47.91
2023-10-09T13:40:29.352Z,47.88
2023-10-09T13:43:01.937Z,48.16
2023-10-09T13:45:35.783Z,47.96
2023-10-09T13:48:08.263Z,47.95
2023-10-09T13:50:45.346Z,47.75
2023-10-09T13:53:17.400Z,47.78
2023-10-09T13:55:47.105Z,47.70
2023-10-09T13:58:23.401Z,47.61
2023-10-09T14:00:56.088Z,47.63
2023-10-09T14:03:26.477Z,47.86
2023-10-09T14:06:12.874Z,47.87
2023-10-09T14:08:44.856Z,48.00
2023-10-09T14:11:16.016Z,47.64
2023-10-09T14:13:48.349Z,47.60
2023-10-09T14:16:27.396Z,47.64
2023-10-09T14:19:01.784Z,47.46
2023-10-09T14:21:32.697Z,47.29
2023-10-09T14:24:02.465Z,47.79
2023-10-09T14:26:32.297Z,47.57
2023-10-09T14:29:02.052Z,47.61
2023-10-09T14:31:31.950Z,47.58
2023-10-09T14:34:01.661Z,47.53
2023-10-09T14:36:36.262Z,47.34
2023-10-09T14:39:07.550Z,47.32
2023-10-09T14:41:37.209Z,47.47
2023-10-09T14:44:07.888Z,47.27
2023-10-09T14:46:38.248Z,47.22
2023-10-09T14:49:08.908Z,47.31
2023-10-09T14:51:39.113Z,47.27
2023-10-09T14:54:10.583Z,47.28
2023-10-09T14:56:40.509Z,47.26
2023-10-09T14:59:10.788Z,47.43
2023-10-09T15:01:40.676Z,47.18
2023-10-09T15:04:15.137Z,47.41
2023-10-09T15:06:44.927Z,47.46
2023-10-09T15:09:24.434Z,47.19
2023-10-09T15:11:54.848Z,47.19
2023-10-09T15:14:26.215Z,47.22
2023-10-09T15:16:58.509Z,47.01
2023-10-09T15:19:34.488Z,47.15
2023-10-09T15:22:04.340Z,46.97
2023-10-09T15:24:34.134Z,47.23
2023-10-09T15:27:03.834Z,47.10
2023-10-09T15:29:35.221Z,47.08
2023-10-09T15:32:17.038Z,47.15
2023-10-09T15:34:46.729Z,47.20
2023-10-09T15:37:16.419Z,47.14
2023-10-09T15:39:46.514Z,46.99
2023-10-09T15:42:16.210Z,47.17
2023-10-09T15:44:50.553Z,46.90
2023-10-09T15:47:20.341Z,47.06
2023-10-09T15:49:50.327Z,46.92
2023-10-09T15:52:20.958Z,47.09
2023-10-09T15:54:50.781Z,46.88
2023-10-09T15:57:21.517Z,46.80
2023-10-09T15:59:54.485Z,46.78
2023-10-09T16:02:24.212Z,46.90
2023-10-09T16:04:55.654Z,46.68
2023-10-09T16:07:29.345Z,46.96
2023-10-09T16:10:01.464Z,46.73
2023-10-09T16:12:33.475Z,46.87
2023-10-09T16:15:03.225Z,46.68
2023-10-09T16:17:33.114Z,46.83
2023-10-09T16:20:03.486Z,46.53
2023-10-09T16:22:33.326Z,46.63
2023-10-09T16:25:03.843Z,47.05
2023-10-09T16:27:34.167Z,46.63
2023-10-09T16:30:08.365Z,46.73
2023-10-09T16:32:40.955Z,46.67
2023-10-09T16:35:12.504Z,46.71
2023-10-09T16:37:43.663Z,46.75
2023-10-09T16:40:16.884Z,46.50
2023-10-09T16:42:46.544Z,46.79
2023-10-09T16:45:18.577Z,46.64
2023-10-09T16:47:51.420Z,46.39
2023-10-09T16:50:22.184Z,46.53
2023-10-09T16:52:56.049Z,46.32
2023-10-09T16:55:27.131Z,46.52
2023-10-09T16:57:58.529Z,46.41
2023-10-09T17:00:40.168Z,46.57
2023-10-09T17:03:10.564Z,46.25
2023-10-09T17:05:57.800Z,46.33
2023-10-09T17:08:33.307Z,46.23
2023-10-09T17:11:05.928Z,46.26
2023-10-09T17:13:35.786Z,46.33
2023-10-09T17:16:08.010Z,46.45
2023-10-09T17:18:37.774Z,46.40
2023-10-09T17:21:10.447Z,46.45
2023-10-09T17:23:40.125Z,46.45
2023-10-09T17:26:13.306Z,46.27
2023-10-09T17:28:43.077Z,46.12
2023-10-09T17:31:12.803Z,46.38
2023-10-09T17:33:45.906Z,46.03
2023-10-09T17:36:19.358Z,46.25
2023-10-09T17:38:55.440Z,45.90
2023-10-09T17:41:25.280Z,46.34
2023-10-09T17:43:55.093Z,46.47
2023-10-09T17:46:24.832Z,46.03
2023-10-09T17:48:54.548Z,46.16
2023-10-09T17:51:24.259Z,45.98
2023-10-09T17:53:53.949Z,46.13
2023-10-09T17:56:28.268Z,46.10
2023-10-09T17:58:58.038Z,46.36
2023-10-09T18:01:32.284Z,46.01
2023-10-09T18:04:02.501Z,46.20
2023-10-09T18:06:33.073Z,45.99
2023-10-09T18:09:18.200Z,46.25
2023-10-09T18:11:48.463Z,46.23
2023-10-09T18:14:19.325Z,46.04
2023-10-09T18:16:50.433Z,46.13
2023-10-09T18:19:23.030Z,46.10
2023-10-09T18:21:53.385Z,46.10
2023-10-09T18:24:25.831Z,46.06
2023-10-09T18:26:55.518Z,46.14
2023-10-09T18:29:26.903Z,46.11
2023-10-09T18:31:56.863Z,45.61
2023-10-09T18:34:29.141Z,45.83
2023-10-09T18:37:01.974Z,45.96
2023-10-09T18:39:33.432Z,45.96
2023-10-09T18:42:03.118Z,45.94
2023-10-09T18:44:32.759Z,45.96
2023-10-09T18:47:02.595Z,45.84
2023-10-09T18:49:32.394Z,46.05
2023-10-09T18:52:02.512Z,45.81
2023-10-09T18:54:32.217Z,46.13
2023-10-09T18:57:01.939Z,45.77
2023-10-09T18:59:32.321Z,45.89
2023-10-09T19:02:02.199Z,46.06
2023-10-09T19:04:32.009Z,45.84
2023-10-09T19:07:01.960Z,46.00
2023-10-09T19:09:31.876Z,45.74
2023-10-09T19:12:01.538Z,45.87
2023-10-09T19:14:31.662Z,45.69
2023-10-09T19:17:02.625Z,46.02
2023-10-09T19:19:32.520Z,45.93
2023-10-09T19:22:02.381Z,45.73
2023-10-09T19:24:33.307Z,46.00
2023-10-09T19:27:03.341Z,45.71
2023-10-09T19:29:34.195Z,45.78
2023-10-09T19:32:05.387Z,45.76
2023-10-09T19:34:37.336Z,45.75
2023-10-09T19:37:10.112Z,45.81
2023-10-09T19:39:39.864Z,45.87
2023-10-09T19:42:10.012Z,46.16
2023-10-09T19:44:42.020Z,45.74
2023-10-09T19:47:12.580Z,46.01
2023-10-09T19:49:42.335Z,45.97
2023-10-09T19:52:11.991Z,45.79
2023-10-09T19:54:45.569Z,45.78
2023-10-09T19:57:15.259Z,45.74
2023-10-09T19:59:45.044Z,45.79
2023-10-09T20:02:16.774Z,45.73
2023-10-09T20:04:46.580Z,45.90
2023-10-09T20:07:17.010Z,45.89
2023-10-09T20:09:50.234Z,45.73
2023-10-09T20:12:22.180Z,45.63
2023-10-09T20:14:51.905Z,45.72
2023-10-09T20:17:21.681Z,45.82
2023-10-09T20:19:54.592Z,45.74
2023-10-09T20:22:24.530Z,45.84
2023-10-09T20:24:54.341Z,45.93
2023-10-09T20:27:25.645Z,45.93
2023-10-09T20:29:56.618Z,45.71
2023-10-09T20:32:26.462Z,45.98
2023-10-09T20:34:59.668Z,45.64
2023-10-09T20:37:29.422Z,45.95
2023-10-09T20:40:01.444Z,45.77
2023-10-09T20:42:31.418Z,45.83
2023-10-09T20:45:03.142Z,45.72
2023-10-09T20:47:34.442Z,45.74
2023-10-09T20:50:04.236Z,45.86
2023-10-09T20:52:34.407Z,45.81
2023-10-09T20:55:04.621Z,45.88
2023-10-09T20:57:34.405Z,45.66
2023-10-09T21:00:04.173Z,45.57
2023-10-09T21:02:33.931Z,45.82
2023-10-09T21:05:03.929Z,45.97
2023-10-09T21:07:33.632Z,45.89
2023-10-09T21:10:04.271Z,45.92
2023-10-09T21:12:33.970Z,45.77
2023-10-09T21:15:03.897Z,45.65
2023-10-09T21:17:33.827Z,45.69
2023-10-09T21:20:03.640Z,45.60
2023-10-09T21:22:33.377Z,45.80
2023-10-09T21:25:03.121Z,45.84
2023-10-09T21:27:32.897Z,45.75
2023-10-09T21:30:03.128Z,45.84
2023-10-09T21:32:33.226Z,45.61
2023-10-09T21:35:04.144Z,45.56
2023-10-09T21:37:34.372Z,45.72
2023-10-09T21:40:05.516Z,45.63
2023-10-09T21:42:35.324Z,45.60
2023-10-09T21:45:05.780Z,45.73
2023-10-09T21:47:36.619Z,45.80
2023-10-09T21:50:07.646Z,45.79
2023-10-09T21:52:37.445Z,45.64
2023-10-09T21:55:08.044Z,45.81
2023-10-09T21:57:38.353Z,45.50
2023-10-09T22:00:15.969Z,45.77
2023-10-09T22:02:54.879Z,45.71
2023-10-09T22:05:25.183Z,45.54
2023-10-09T22:07:54.987Z,45.77
2023-10-09T22:10:24.707Z,45.72
2023-10-09T22:12:54.428Z,45.78
2023-10-09T22:15:24.737Z,45.75
2023-10-09T22:17:54.445Z,45.79
2023-10-09T22:20:26.700Z,45.49
2023-10-09T22:22:59.324Z,45.64
2023-10-09T22:25:30.760Z,45.75
2023-10-09T22:28:06.396Z,45.81
2023-10-09T22:30:39.348Z,45.95
2023-10-09T22:33:14.888Z,45.66
2023-10-09T22:35:55.635Z,45.73
2023-10-09T22:38:25.352Z,45.61
2023-10-09T22:40:55.145Z,45.90
2023-10-09T22:43:26.373Z,45.64
2023-10-09T22:45:59.206Z,45.85
2023-10-09T22:48:31.904Z,45.61
2023-10-09T22:51:01.623Z,45.46
2023-10-09T22:53:40.738Z,45.45
2023-10-09T22:56:14.920Z,45.51
2023-10-09T22:58:53.473Z,45.49
2023-10-09T23:01:28.897Z,45.47
2023-10-09T23:04:33.122Z,45.73
2023-10-09T23:07:22.849Z,45.54
2023-10-09T23:09:52.974Z,45.28
2023-10-09T23:12:28.046Z,45.43
2023-10-09T23:14:57.898Z,45.51
2023-10-09T23:17:45.408Z,45.49
2023-10-09T23:20:19.724Z,45.43
2023-10-09T23:22:52.669Z,45.45
2023-10-09T23:25:35.859Z,45.34
2023-10-09T23:28:37.449Z,45.15
2023-10-09T23:31:28.724Z,45.21
2023-10-09T23:33:58.523Z,45.08
2023-10-09T23:36:44.602Z,44.93
2023-10-09T23:39:36.804Z,44.89
2023-10-09T23:42:17.926Z,44.91
2023-10-09T23:44:50.212Z,44.86
2023-10-09T23:47:20.331Z,44.88
2023-10-09T23:49:50.740Z,45.06
2023-10-09T23:52:20.416Z,44.92
2023-10-09T23:54:50.366Z,44.96
2023-10-09T23:57:23.416Z,44.42
